RJBM(METAR)
10/16 18:00
METAR RJBM 160900Z 02004KT 330V040 9999 FEW030 SCT050 15/10 Q1024
RMK 1CU030 3SC050 A3026=
戻る
トップページへ戻る
IMOC Co,.Ltd.